Time;durP1;ratioP1;P1;durP2;ratioP2;P2;SDS_P1;SDS_P2;PMS_P1;PMS_P2;Temp;Humidity;BMP_temperature;BMP_pressure;BME280_temperature;BME280_humidity;BME280_pressure;Samples;Min_cycle;Max_cycle;Signal;HPM_P1;HPM_P2
2023/12/24 00:02:16;;;;;;;;;;;;;;;8.30;56.81;98476.66;106259;1254;72651;-86
2023/12/24 00:04:50;;;;;;;;;;;;;;;8.19;57.16;98476.67;106170;1254;61334;-81
2023/12/24 00:07:23;;;;;;;;;;;;;;;8.21;57.18;98478.85;106160;1254;61410;-86
2023/12/24 00:09:57;;;;;;;;;;;;;;;8.19;57.08;98480.70;106303;1254;75015;-85
2023/12/24 00:12:30;;;;;;;;;;;;;;;8.06;57.55;98485.98;106084;1254;67551;-84
2023/12/24 00:15:05;;;;;;;;;;;;;;;7.98;57.89;98488.66;106213;1254;72671;-80
2023/12/24 00:17:39;;;;;;;;;;;;;;;8.05;57.70;98488.14;106194;1254;61272;-80
2023/12/24 00:20:13;;;;;;;;;;;;;;;8.05;57.62;98490.41;106331;1255;61136;-80
2023/12/24 00:22:46;;;;;;;;;;;;;;;8.05;57.72;98489.06;106241;1255;74776;-80
2023/12/24 00:25:20;;;;;;;;;;;;;;;8.06;57.59;98497.46;106235;1254;67391;-80
2023/12/24 00:27:53;;;;;;;;;;;;;;;8.06;57.58;98497.67;106335;1253;72699;-80
2023/12/24 08:31:25;;;;;;;;;;;;;;;8.34;56.56;98937.30;106441;1254;61247;-87
2023/12/24 08:34:04;;;;;;;;;;;;;;;8.36;56.71;98936.07;106306;1253;73364;-87
2023/12/24 08:36:44;;;;;;;;;;;;;;;8.35;56.50;98941.21;106381;1256;67159;-86
2023/12/24 08:39:24;;;;;;;;;;;;;;;8.25;56.88;98941.88;106420;1253;71894;-81
2023/12/24 08:42:04;;;;;;;;;;;;;;;8.26;56.86;98943.49;106349;1254;61315;-81
2023/12/24 08:44:43;;;;;;;;;;;;;;;8.33;56.55;98943.43;106710;1254;61084;-86
2023/12/24 08:47:23;;;;;;;;;;;;;;;8.34;56.72;98941.84;106396;1254;74796;-87
2023/12/24 08:50:03;;;;;;;;;;;;;;;8.37;56.74;98938.23;106371;1258;67999;-81
2023/12/24 08:52:43;;;;;;;;;;;;;;;8.46;56.88;98943.86;106445;1254;72694;-86
2023/12/24 08:55:23;;;;;;;;;;;;;;;8.53;56.58;98948.67;106301;1253;61324;-86
2023/12/24 08:58:03;;;;;;;;;;;;;;;8.51;56.76;98951.17;106314;1253;61362;-81
2023/12/24 09:00:43;;;;;;;;;;;;;;;8.52;56.87;98949.23;106186;1253;75150;-80
2023/12/24 09:03:23;;;;;;;;;;;;;;;8.52;57.29;98949.62;106263;1253;69031;-87
2023/12/24 09:06:02;;;;;;;;;;;;;;;8.53;57.58;98952.60;106688;1256;71295;-87
2023/12/24 09:08:36;;;;;;;;;;;;;;;8.50;58.05;98956.25;106296;1255;61356;-86
2023/12/24 09:11:16;;;;;;;;;;;;;;;8.42;58.53;98958.08;106270;1253;61335;-86
2023/12/24 09:13:56;;;;;;;;;;;;;;;8.40;59.20;98962.42;106342;1253;73436;-80
2023/12/24 09:16:29;;;;;;;;;;;;;;;8.37;59.54;98966.38;106475;1253;67618;-81
2023/12/24 09:19:03;;;;;;;;;;;;;;;8.36;59.90;98969.66;106421;1253;71418;-80
2023/12/24 09:21:42;;;;;;;;;;;;;;;8.28;60.61;98968.33;106390;1254;61207;-80
2023/12/24 09:24:22;;;;;;;;;;;;;;;8.14;61.50;98978.65;106395;1256;61274;-86
2023/12/24 09:26:50;;;;;;;;;;;;;;;8.18;61.88;98975.92;106344;1253;73814;-86
2023/12/24 09:29:29;;;;;;;;;;;;;;;8.23;62.12;98975.54;106360;1254;67373;-81
2023/12/24 09:32:09;;;;;;;;;;;;;;;8.22;62.43;98979.43;106544;1254;71733;-80
2023/12/24 09:34:49;;;;;;;;;;;;;;;8.35;62.01;98981.44;106461;1254;61341;-85
2023/12/24 09:37:16;;;;;;;;;;;;;;;8.51;61.14;98982.23;106250;1258;61279;-86
2023/12/24 09:39:56;;;;;;;;;;;;;;;8.54;60.95;98976.73;106340;1253;74748;-80
2023/12/24 09:42:36;;;;;;;;;;;;;;;8.59;60.50;98979.42;106390;1258;67242;-80
2023/12/24 09:45:03;;;;;;;;;;;;;;;8.63;60.23;98974.80;106259;1253;72682;-81
2023/12/24 09:47:31;;;;;;;;;;;;;;;8.66;59.64;98975.05;106242;1253;61243;-81
2023/12/24 09:50:05;;;;;;;;;;;;;;;8.48;60.08;98974.29;106287;1254;61231;-86
2023/12/24 09:52:39;;;;;;;;;;;;;;;8.56;59.42;98971.06;106251;1256;74656;-86
2023/12/24 09:55:13;;;;;;;;;;;;;;;8.61;58.72;98969.16;106372;1254;67625;-86
2023/12/24 09:57:40;;;;;;;;;;;;;;;8.60;58.39;98966.06;106366;1256;71470;-86
2023/12/24 10:00:14;;;;;;;;;;;;;;;8.58;58.17;98963.17;106359;1256;61329;-86
2023/12/24 10:02:48;;;;;;;;;;;;;;;8.64;57.91;98965.90;106320;1253;59264;-86
2023/12/24 10:05:16;;;;;;;;;;;;;;;8.61;58.09;98963.98;106418;1254;77152;-82
2023/12/24 10:07:50;;;;;;;;;;;;;;;8.56;58.79;98965.27;106601;1258;68146;-81
2023/12/24 10:10:30;;;;;;;;;;;;;;;8.55;58.74;98966.27;106513;1256;71425;-81
2023/12/24 10:13:05;;;;;;;;;;;;;;;8.57;58.93;98969.06;106316;1256;61631;-86
2023/12/24 10:15:38;;;;;;;;;;;;;;;8.64;58.93;98964.11;106434;1253;61260;-86
2023/12/24 10:18:16;;;;;;;;;;;;;;;8.65;59.01;98971.77;106253;1253;74706;-86
2023/12/24 10:20:50;;;;;;;;;;;;;;;8.56;59.04;98979.33;106589;1256;67346;-86
2023/12/24 10:23:24;;;;;;;;;;;;;;;8.56;58.53;98974.25;106181;1260;71454;-86
2023/12/24 10:25:59;;;;;;;;;;;;;;;8.58;58.23;98971.50;106472;1257;61193;-81
2023/12/24 10:28:33;;;;;;;;;;;;;;;8.48;58.72;98971.54;106624;1253;61416;-81
2023/12/24 10:31:07;;;;;;;;;;;;;;;8.56;58.67;98970.99;106467;1253;74632;-81
2023/12/24 10:33:47;;;;;;;;;;;;;;;8.72;58.21;98975.48;106368;1253;68385;-81
2023/12/24 10:36:14;;;;;;;;;;;;;;;8.83;57.17;98970.68;106269;1253;72645;-86
2023/12/24 10:38:48;;;;;;;;;;;;;;;8.85;56.75;98971.90;106361;1258;62014;-86
2023/12/24 10:41:22;;;;;;;;;;;;;;;8.91;56.21;98970.41;106358;1253;61376;-86
2023/12/24 10:43:55;;;;;;;;;;;;;;;8.98;55.79;98973.19;106335;1254;73312;-85
2023/12/24 10:46:23;;;;;;;;;;;;;;;8.97;55.40;98972.14;106364;1254;68455;-85
2023/12/24 10:48:57;;;;;;;;;;;;;;;8.97;55.25;98972.95;106291;1256;71101;-85
2023/12/24 10:51:31;;;;;;;;;;;;;;;9.02;55.00;98966.80;106314;1254;61300;-86
2023/12/24 10:54:05;;;;;;;;;;;;;;;9.09;54.77;98973.14;106337;1254;61304;-86
2023/12/24 10:56:39;;;;;;;;;;;;;;;9.18;53.95;98972.63;106519;1254;74631;-86
2023/12/24 10:59:32;;;;;;;;;;;;;;;9.17;53.53;98974.66;106374;1256;68514;-86
2023/12/24 11:02:10;;;;;;;;;;;;;;;9.08;52.87;98977.40;106360;1253;72811;-86
2023/12/24 11:04:41;;;;;;;;;;;;;;;9.03;52.76;98978.86;106458;1258;61333;-81
2023/12/24 11:07:33;;;;;;;;;;;;;;;9.05;52.46;98981.18;106461;1256;61245;-81
2023/12/24 11:10:07;;;;;;;;;;;;;;;9.14;51.90;98980.77;106328;1253;74658;-81
2023/12/24 11:12:41;;;;;;;;;;;;;;;9.09;51.75;98979.84;106219;1256;68732;-81
2023/12/24 11:15:10;;;;;;;;;;;;;;;9.13;51.48;98983.25;106247;1253;71565;-81
2023/12/24 11:17:47;;;;;;;;;;;;;;;9.16;51.24;98987.09;106233;1256;61250;-81
2023/12/24 11:20:24;;;;;;;;;;;;;;;9.13;51.31;98990.05;106326;1256;61267;-81
2023/12/24 11:23:16;;;;;;;;;;;;;;;9.27;50.24;98998.52;106408;1253;74729;-82
2023/12/24 11:25:45;;;;;;;;;;;;;;;9.38;49.44;98998.66;106406;1258;68421;-81
2023/12/24 11:28:23;;;;;;;;;;;;;;;9.53;48.96;99008.33;106502;1254;70909;-81
2023/12/24 11:30:56;;;;;;;;;;;;;;;9.60;48.55;99004.34;106131;1253;61320;-81
2023/12/24 11:33:36;;;;;;;;;;;;;;;9.59;48.46;99004.30;106544;1254;61206;-82
2023/12/24 11:36:11;;;;;;;;;;;;;;;9.52;47.84;99003.11;106411;1253;74667;-86
2023/12/24 11:38:45;;;;;;;;;;;;;;;9.42;47.39;99003.06;106374;1258;68394;-82
2023/12/24 11:41:24;;;;;;;;;;;;;;;9.40;47.22;99009.27;106424;1253;72723;-81
2023/12/24 11:43:58;;;;;;;;;;;;;;;9.43;46.97;99015.41;106492;1257;61164;-82
2023/12/24 11:46:34;;;;;;;;;;;;;;;9.46;46.90;99025.04;106663;1254;61424;-81
2023/12/24 11:49:07;;;;;;;;;;;;;;;9.47;46.43;99030.21;107307;1256;74681;-82
2023/12/24 11:51:41;;;;;;;;;;;;;;;9.43;46.16;99031.33;106710;1258;67324;-81
2023/12/24 11:54:10;;;;;;;;;;;;;;;9.37;46.43;99032.02;106763;1256;72697;-82
2023/12/24 11:56:48;;;;;;;;;;;;;;;9.35;46.42;99045.68;106636;1255;61267;-82
2023/12/24 11:59:23;;;;;;;;;;;;;;;9.33;46.55;99053.30;106685;1253;61111;-81
2023/12/24 12:02:02;;;;;;;;;;;;;;;9.23;46.75;99058.09;106712;1253;74613;-81
2023/12/24 12:04:31;;;;;;;;;;;;;;;9.19;47.11;99058.60;106774;1255;67209;-81
2023/12/24 12:07:08;;;;;;;;;;;;;;;8.99;47.26;99058.50;106731;1256;71290;-80
2023/12/24 12:09:43;;;;;;;;;;;;;;;8.92;47.59;99063.00;106740;1253;61210;-80
2023/12/24 12:12:11;;;;;;;;;;;;;;;8.94;47.23;99069.11;106849;1258;61558;-81
2023/12/24 12:14:46;;;;;;;;;;;;;;;8.94;47.33;99070.43;106584;1253;75026;-81
2023/12/24 12:17:22;;;;;;;;;;;;;;;8.86;47.52;99072.22;106913;1253;68346;-85
2023/12/24 12:19:56;;;;;;;;;;;;;;;8.93;47.16;99075.48;106792;1253;75028;-86
2023/12/24 12:22:26;;;;;;;;;;;;;;;8.91;47.09;99078.56;107023;1253;61206;-85
2023/12/24 12:25:01;;;;;;;;;;;;;;;8.93;47.12;99076.19;106940;1260;61373;-86
2023/12/24 12:27:40;;;;;;;;;;;;;;;8.94;47.15;99081.77;106587;1253;73452;-86
2023/12/24 12:30:08;;;;;;;;;;;;;;;8.96;47.03;99082.82;106369;1253;68339;-86
